createdAt,value
2022-08-22T00:00:15.052Z,99335.66
2022-08-22T00:03:01.814Z,99377.97
2022-08-22T00:03:09.861Z,99375.28
2022-08-22T00:10:21.010Z,99329.81
2022-08-22T00:20:34.288Z,99322.19
2022-08-22T00:30:56.417Z,99343.09
2022-08-22T00:41:01.649Z,99340.56
2022-08-22T00:51:29.380Z,99355.28
2022-08-22T01:01:36.591Z,99350.31
2022-08-22T01:11:38.190Z,99357.88
2022-08-22T01:22:18.504Z,99360.31
2022-08-22T01:32:28.892Z,99359.75
2022-08-22T01:42:33.258Z,99370.06
2022-08-22T01:52:39.376Z,99364.63
2022-08-22T02:02:59.930Z,99356.41
2022-08-22T02:13:01.694Z,99349.38
2022-08-22T02:23:22.249Z,99368.44
2022-08-22T02:33:34.056Z,99375.38
2022-08-22T02:43:40.091Z,99383.69
2022-08-22T02:53:45.241Z,99390.50
2022-08-22T03:03:48.415Z,99409.75
2022-08-22T03:14:05.818Z,99403.88
2022-08-22T03:24:07.478Z,99406.53
2022-08-22T03:34:18.983Z,99408.97
2022-08-22T03:44:56.204Z,99425.63
2022-08-22T03:55:16.985Z,99433.13
2022-08-22T04:05:31.682Z,99433.59
2022-08-22T04:25:42.093Z,99441.41
2022-08-22T04:35:54.350Z,99442.41
2022-08-22T04:46:19.353Z,99448.31
2022-08-22T04:56:22.021Z,99446.34
2022-08-22T05:06:27.056Z,99460.50
2022-08-22T05:16:30.684Z,99460.75
2022-08-22T05:26:40.934Z,99470.31
2022-08-22T05:36:48.658Z,99478.13
2022-08-22T05:46:58.139Z,99477.78
2022-08-22T05:57:08.001Z,99475.03
2022-08-22T06:07:14.282Z,99483.94
2022-08-22T06:17:20.466Z,99484.25
2022-08-22T06:27:24.222Z,99480.72
2022-08-22T06:37:33.917Z,99474.56
2022-08-22T06:48:00.283Z,99469.22
2022-08-22T06:58:05.401Z,99469.13
2022-08-22T07:08:08.630Z,99460.97
2022-08-22T07:18:18.239Z,99452.47
2022-08-22T07:28:36.842Z,99440.50
2022-08-22T07:39:19.029Z,99442.75
2022-08-22T07:49:27.078Z,99441.13
2022-08-22T07:59:29.750Z,99431.50
2022-08-22T08:09:34.210Z,99436.91
2022-08-22T08:19:39.905Z,99432.34
2022-08-22T08:29:45.445Z,99436.03
2022-08-22T08:39:50.894Z,99433.03
2022-08-22T08:50:01.942Z,99414.69
2022-08-22T09:00:30.325Z,99403.19
2022-08-22T09:10:32.158Z,99406.88
2022-08-22T09:40:15.704Z,99380.59
2022-08-22T09:42:08.140Z,99385.88
2022-08-22T09:52:35.009Z,99389.16
2022-08-22T10:02:50.348Z,99391.91
2022-08-22T10:13:02.919Z,99392.97
2022-08-22T10:23:08.515Z,99408.13
2022-08-22T10:33:24.797Z,99395.59
2022-08-22T10:43:57.487Z,99403.66
2022-08-22T10:54:20.048Z,99412.41
2022-08-22T11:04:35.752Z,99414.91
2022-08-22T11:14:45.147Z,99414.41
2022-08-22T11:25:04.499Z,99412.41
2022-08-22T11:35:28.330Z,99416.66
2022-08-22T11:45:36.080Z,99419.06
2022-08-22T11:56:06.132Z,99410.25
2022-08-22T12:06:30.659Z,99418.94
2022-08-22T12:16:50.038Z,99400.84
2022-08-22T12:27:29.245Z,99399.88
2022-08-22T12:38:09.550Z,99395.72
2022-08-22T12:49:08.093Z,99399.03
2022-08-22T12:59:35.198Z,99394.69
2022-08-22T13:21:15.147Z,99390.59
2022-08-22T13:31:40.396Z,99386.31
2022-08-22T14:59:50.091Z,99420.44
2022-08-22T15:21:37.045Z,99426.22
2022-08-22T15:32:09.623Z,99426.69
2022-08-22T15:42:34.276Z,99433.59
2022-08-22T15:53:05.126Z,99442.16
2022-08-22T16:03:34.824Z,99446.59
2022-08-22T16:14:05.280Z,99462.28
2022-08-22T16:24:24.180Z,99457.69
2022-08-22T16:34:50.557Z,99471.66
2022-08-22T16:45:14.089Z,99479.47
2022-08-22T16:55:42.784Z,99481.91
2022-08-22T17:17:02.764Z,99501.88
2022-08-22T17:27:36.041Z,99511.34
2022-08-22T17:38:02.986Z,99523.63
2022-08-22T18:44:21.923Z,99521.91
2022-08-22T20:31:58.076Z,99520.09
